Time;durP1;ratioP1;P1;durP2;ratioP2;P2;SDS_P1;SDS_P2;PMS_P1;PMS_P2;Temp;Humidity;BMP_temperature;BMP_pressure;BME280_temperature;BME280_humidity;BME280_pressure;Samples;Min_cycle;Max_cycle;Signal;HPM_P1;HPM_P2
2021/12/12 00:02:07;;;;;;;22.00;9.90;;;;;;;11.97;65.57;100805.55;117036;1188;21849;-56
2021/12/12 00:04:37;;;;;;;24.00;11.20;;;;;;;11.99;65.59;100805.89;117028;1186;21845;-57
2021/12/12 00:07:07;;;;;;;18.90;11.10;;;;;;;12.02;65.57;100808.15;117008;1189;22934;-61
2021/12/12 00:09:42;;;;;;;22.60;10.60;;;;;;;12.06;65.42;100815.33;117020;1188;21861;-57
2021/12/12 00:12:25;;;;;;;28.30;9.60;;;;;;;12.08;65.55;100818.47;117056;1188;21861;-60
2021/12/12 00:14:54;;;;;;;25.60;9.70;;;;;;;12.07;65.58;100818.66;117326;1186;22628;-58
2021/12/12 00:17:41;;;;;;;27.60;9.70;;;;;;;12.07;65.47;100818.13;117296;1183;21859;-61
2021/12/12 00:20:11;;;;;;;22.40;8.80;;;;;;;12.07;65.67;100818.66;117360;1186;21937;-61
2021/12/12 00:22:39;;;;;;;21.80;8.70;;;;;;;12.08;65.56;100813.73;117391;1186;21858;-61
2021/12/12 00:25:07;;;;;;;29.00;8.00;;;;;;;12.06;65.49;100809.53;117282;1188;22895;-57
2021/12/12 00:27:36;;;;;;;33.70;8.70;;;;;;;12.04;65.46;100812.36;117356;1186;23542;-58
2021/12/12 00:30:07;;;;;;;22.70;8.10;;;;;;;12.04;65.35;100808.67;117342;1186;21855;-58
2021/12/12 00:32:39;;;;;;;26.00;8.40;;;;;;;12.04;65.51;100803.21;117321;1184;21870;-61
2021/12/12 00:35:10;;;;;;;23.60;8.80;;;;;;;12.03;65.43;100799.70;117301;1186;23469;-57
2021/12/12 00:37:38;;;;;;;24.00;8.40;;;;;;;12.02;65.38;100798.48;117263;1186;23564;-57
2021/12/12 00:40:23;;;;;;;30.80;9.20;;;;;;;12.01;65.30;100803.08;117390;1186;21863;-60
2021/12/12 00:42:54;;;;;;;23.30;9.40;;;;;;;11.99;65.54;100806.94;117393;1186;21868;-61
2021/12/12 00:45:22;;;;;;;26.80;9.50;;;;;;;11.92;65.48;100799.10;117399;1185;22901;-61
2021/12/12 00:47:51;;;;;;;29.50;9.80;;;;;;;11.94;65.50;100797.14;117322;1186;21862;-57
2021/12/12 00:50:29;;;;;;;26.80;10.20;;;;;;;11.92;65.33;100802.96;117335;1186;23364;-57
2021/12/12 00:52:57;;;;;;;32.30;10.90;;;;;;;11.91;65.27;100800.52;117219;1186;23586;-60
2021/12/12 00:55:26;;;;;;;22.30;11.10;;;;;;;11.91;65.39;100807.55;117325;1184;24178;-61
2021/12/12 00:57:54;;;;;;;31.50;12.00;;;;;;;11.83;65.27;100805.70;117357;1186;21859;-60
2021/12/12 01:00:30;;;;;;;28.30;11.80;;;;;;;11.81;65.55;100808.17;117381;1186;21844;-61
2021/12/12 01:02:58;;;;;;;38.20;13.70;;;;;;;11.77;65.48;100800.99;117388;1176;21853;-57
2021/12/12 01:05:27;;;;;;;29.00;12.90;;;;;;;11.77;65.57;100799.77;117184;1188;21847;-60
2021/12/12 01:07:55;;;;;;;38.90;14.70;;;;;;;11.74;65.49;100792.42;117373;1184;21864;-60
2021/12/12 01:10:26;;;;;;;35.20;14.40;;;;;;;11.78;65.44;100787.30;117298;1186;23469;-60
2021/12/12 01:12:55;;;;;;;34.60;14.80;;;;;;;11.79;65.37;100789.04;117303;1186;22651;-57
2021/12/12 01:15:26;;;;;;;38.80;15.20;;;;;;;11.79;65.50;100790.25;117297;1186;21926;-57
2021/12/12 01:17:59;;;;;;;32.50;16.00;;;;;;;11.80;65.29;100787.61;117343;1186;21865;-57
2021/12/12 01:20:39;;;;;;;34.50;15.00;;;;;;;11.78;65.26;100789.57;117383;1184;21853;-57
2021/12/12 01:23:18;;;;;;;34.90;16.90;;;;;;;11.75;65.22;100785.73;117400;1186;23582;-60
2021/12/12 01:25:47;;;;;;;33.00;16.30;;;;;;;11.75;65.31;100790.47;117345;1186;21852;-58
2021/12/12 01:28:19;;;;;;;33.50;16.80;;;;;;;11.74;65.29;100790.48;117337;1186;21890;-60
2021/12/12 01:30:48;;;;;;;32.70;16.50;;;;;;;11.68;65.14;100792.33;117279;1185;23459;-60
2021/12/12 01:33:26;;;;;;;30.30;16.20;;;;;;;11.65;65.14;100790.94;117316;1186;21868;-60
2021/12/12 01:35:55;;;;;;;27.40;16.90;;;;;;;11.62;65.05;100783.77;117325;1185;21859;-60
2021/12/12 01:41:10;;;;;;;39.80;16.50;;;;;;;11.57;65.29;100771.69;117410;1183;21870;-57
2021/12/12 01:43:44;;;;;;;25.60;16.40;;;;;;;11.55;65.05;100769.06;117205;1190;21888;-61
2021/12/12 01:46:22;;;;;;;29.70;16.70;;;;;;;11.49;65.08;100767.37;117319;1186;23443;-60
2021/12/12 01:48:57;;;;;;;30.00;19.10;;;;;;;11.50;65.18;100769.46;117179;1186;21859;-59
2021/12/12 01:51:25;;;;;;;35.10;20.60;;;;;;;11.48;65.24;100778.80;117141;1187;22164;-59
2021/12/12 01:53:56;;;;;;;38.00;20.70;;;;;;;11.48;65.24;100781.45;117378;1186;22974;-56
2021/12/12 01:56:30;;;;;;;25.60;17.50;;;;;;;11.46;65.25;100779.88;117326;1186;21855;-58
2021/12/12 01:59:01;;;;;;;31.30;16.90;;;;;;;11.42;65.23;100775.17;117297;1186;21862;-58
2021/12/12 02:01:43;;;;;;;25.70;15.10;;;;;;;11.36;65.18;100768.20;117381;1186;21861;-60
2021/12/12 02:04:18;;;;;;;34.70;15.50;;;;;;;11.31;65.00;100768.94;117172;1186;23434;-58
2021/12/12 02:06:50;;;;;;;25.00;14.70;;;;;;;11.25;65.02;100770.23;117224;1186;21845;-57
2021/12/12 02:09:19;;;;;;;25.00;14.50;;;;;;;11.22;64.89;100769.22;117201;1183;21864;-60
2021/12/12 02:11:48;;;;;;;28.60;14.10;;;;;;;11.20;64.89;100768.52;117306;1186;23632;-57
2021/12/12 02:14:17;;;;;;;31.00;13.30;;;;;;;11.14;64.98;100769.09;117315;1186;21867;-58
2021/12/12 02:16:48;;;;;;;31.30;14.30;;;;;;;11.08;64.78;100767.90;117215;1187;23638;-61
2021/12/12 02:19:17;;;;;;;28.30;13.40;;;;;;;11.04;64.95;100763.73;117362;1186;23436;-57
2021/12/12 02:22:24;;;;;;;23.70;12.20;;;;;;;11.01;64.96;100761.83;117354;1185;23476;-57
2021/12/12 02:36:16;;;;;;;28.20;12.80;;;;;;;10.89;64.97;100740.84;117371;1186;23551;-61
2021/12/12 02:38:45;;;;;;;23.50;13.60;;;;;;;10.88;64.91;100734.00;117330;1185;21885;-58
2021/12/12 02:41:14;;;;;;;27.20;14.80;;;;;;;10.85;64.86;100738.59;117360;1186;22733;-57
2021/12/12 02:43:49;;;;;;;23.30;13.90;;;;;;;10.83;64.97;100739.83;117339;1186;21871;-61
2021/12/12 02:46:27;;;;;;;24.80;14.00;;;;;;;10.81;64.98;100746.86;117350;1182;23894;-57
2021/12/12 02:49:05;;;;;;;27.00;14.50;;;;;;;10.78;64.89;100759.54;117292;1183;21870;-58
2021/12/12 02:51:39;;;;;;;22.70;14.80;;;;;;;10.76;64.96;100767.97;117327;1186;24156;-58
2021/12/12 02:54:07;;;;;;;25.40;14.70;;;;;;;10.71;64.93;100764.33;117342;1189;21855;-61
2021/12/12 02:56:38;;;;;;;26.30;15.10;;;;;;;10.69;64.96;100767.31;117339;1185;21859;-61
2021/12/12 02:59:09;;;;;;;26.90;15.50;;;;;;;10.66;64.88;100765.40;117194;1189;21881;-60
2021/12/12 03:01:53;;;;;;;25.70;16.10;;;;;;;10.62;65.00;100767.88;117332;1186;22619;-59
2021/12/12 03:04:22;;;;;;;29.60;15.90;;;;;;;10.63;64.83;100767.70;117344;1186;21859;-59
2021/12/12 03:06:50;;;;;;;34.30;18.20;;;;;;;10.64;64.78;100764.71;117323;1186;21860;-56
2021/12/12 03:09:28;;;;;;;30.30;16.70;;;;;;;10.62;64.98;100768.23;117308;1186;21848;-57
2021/12/12 03:11:59;;;;;;;31.90;17.70;;;;;;;10.58;64.84;100768.45;117344;1186;21862;-60
2021/12/12 03:14:36;;;;;;;34.60;18.00;;;;;;;10.54;64.84;100769.16;117411;1185;21901;-62
2021/12/12 03:17:09;;;;;;;36.00;20.70;;;;;;;10.53;64.95;100769.70;117413;1185;23007;-56
2021/12/12 03:19:38;;;;;;;33.80;19.60;;;;;;;10.53;64.90;100776.02;117450;1185;22884;-57
2021/12/12 03:22:07;;;;;;;35.80;21.30;;;;;;;10.53;65.01;100780.92;117304;1185;23443;-60
2021/12/12 03:24:36;;;;;;;31.90;19.90;;;;;;;10.53;65.00;100773.73;117308;1186;21859;-60
2021/12/12 03:27:05;;;;;;;33.40;19.50;;;;;;;10.52;64.92;100781.98;117376;1185;22926;-57
2021/12/12 03:29:34;;;;;;;35.10;21.90;;;;;;;10.48;64.77;100781.66;117295;1186;21877;-60
2021/12/12 03:32:14;;;;;;;33.20;20.90;;;;;;;10.48;64.89;100785.69;117178;1190;22104;-58
2021/12/12 03:34:44;;;;;;;;;;;;;;;10.46;64.95;100784.48;117344;1186;22924;-59
2021/12/12 03:37:14;;;;;;;33.80;20.20;;;;;;;10.47;64.94;100783.77;117331;1185;22935;-56
2021/12/12 03:39:43;;;;;;;32.70;20.30;;;;;;;10.50;64.94;100781.48;117363;1186;23540;-56
2021/12/12 03:42:18;;;;;;;36.70;21.50;;;;;;;10.49;65.05;100779.89;117386;1185;21867;-59
2021/12/12 03:44:46;;;;;;;36.80;22.10;;;;;;;10.48;65.06;100773.94;117346;1185;23458;-60
2021/12/12 03:47:28;;;;;;;37.40;22.20;;;;;;;10.49;65.05;100778.14;117309;1177;21864;-57
2021/12/12 03:49:57;;;;;;;31.60;20.20;;;;;;;10.51;64.96;100775.86;117297;1186;21891;-58
2021/12/12 03:52:26;;;;;;;33.30;21.00;;;;;;;10.49;64.95;100778.32;117307;1186;21858;-57
2021/12/12 03:54:58;;;;;;;34.80;22.10;;;;;;;10.47;64.95;100779.02;117356;1184;21859;-56
2021/12/12 03:57:26;;;;;;;35.20;20.90;;;;;;;10.46;65.06;100780.27;117344;1186;23464;-60
2021/12/12 03:59:54;;;;;;;31.30;21.00;;;;;;;10.47;65.08;100778.69;117315;1186;21859;-60
2021/12/12 04:02:23;;;;;;;36.40;23.60;;;;;;;10.50;64.98;100781.65;117317;1186;21856;-60
2021/12/12 04:04:51;;;;;;;39.10;22.00;;;;;;;10.52;65.03;100789.71;117191;1186;21862;-57
2021/12/12 04:07:23;;;;;;;34.70;22.70;;;;;;;10.49;64.95;100788.66;117295;1186;21871;-58
2021/12/12 04:09:52;;;;;;;35.90;21.10;;;;;;;10.48;64.97;100783.07;117159;1186;22184;-60
2021/12/12 04:12:21;;;;;;;36.10;21.40;;;;;;;10.47;65.16;100789.55;117228;1185;23551;-56
2021/12/12 04:14:51;;;;;;;34.30;22.00;;;;;;;10.46;65.12;100793.24;117283;1182;21863;-60
2021/12/12 04:17:22;;;;;;;34.40;20.70;;;;;;;10.47;65.08;100794.82;117439;1186;21855;-57
2021/12/12 04:19:51;;;;;;;37.00;20.80;;;;;;;10.46;65.03;100788.68;117340;1186;21860;-57
2021/12/12 04:22:19;;;;;;;37.40;22.30;;;;;;;10.48;65.10;100797.96;117370;1185;21859;-60
2021/12/12 04:24:51;;;;;;;37.50;21.20;;;;;;;10.49;64.93;100794.27;117341;1186;21874;-60
2021/12/12 04:27:19;;;;;;;34.80;20.70;;;;;;;10.47;65.00;100801.14;117378;1185;21858;-56
2021/12/12 04:29:48;;;;;;;29.40;18.70;;;;;;;10.46;64.92;100796.06;117433;1186;21870;-58
2021/12/12 04:32:25;;;;;;;29.30;18.80;;;;;;;10.44;65.06;100795.54;117337;1189;23686;-56
2021/12/12 04:35:00;;;;;;;33.10;20.00;;;;;;;10.46;64.88;100793.08;117338;1185;23440;-57
2021/12/12 04:37:28;;;;;;;31.20;19.20;;;;;;;10.48;64.98;100805.00;117423;1185;23633;-57
2021/12/12 04:39:58;;;;;;;29.90;20.30;;;;;;;10.48;64.98;100805.16;117247;1186;21864;-60
2021/12/12 04:42:31;;;;;;;31.30;19.50;;;;;;;10.49;64.96;100813.23;117314;1186;21920;-56
2021/12/12 04:45:19;;;;;;;30.70;19.30;;;;;;;10.50;64.87;100810.25;117308;1186;21894;-56
2021/12/12 04:50:47;;;;;;;26.80;17.10;;;;;;;10.48;64.91;100812.36;117335;1186;21855;-57
2021/12/12 04:53:36;;;;;;;28.70;17.00;;;;;;;10.49;64.86;100814.46;117375;1186;21857;-56
2021/12/12 04:56:10;;;;;;;29.90;17.00;;;;;;;10.49;64.80;100818.33;117234;1186;21867;-60
2021/12/12 04:58:49;;;;;;;26.90;16.70;;;;;;;10.53;64.91;100820.41;117170;1185;21851;-56
2021/12/12 05:01:23;;;;;;;27.20;16.30;;;;;;;10.54;64.78;100810.23;117201;1186;21857;-60
2021/12/12 05:04:09;;;;;;;26.60;16.40;;;;;;;10.57;64.82;100820.21;117287;1186;23458;-60
2021/12/12 05:06:54;;;;;;;25.90;16.10;;;;;;;10.54;64.88;100823.39;117242;1182;22634;-56
2021/12/12 05:09:53;;;;;;;22.90;15.40;;;;;;;10.57;64.88;100814.25;117210;1186;21860;-59
2021/12/12 05:12:27;;;;;;;22.80;15.20;;;;;;;10.59;64.86;100813.73;117186;1186;23452;-57
2021/12/12 05:15:03;;;;;;;21.60;14.60;;;;;;;10.60;64.94;100816.69;117416;1186;21854;-59
2021/12/12 05:17:43;;;;;;;25.20;15.50;;;;;;;10.61;64.97;100805.80;117323;1176;21848;-59
2021/12/12 05:20:17;;;;;;;23.40;16.00;;;;;;;10.64;64.86;100802.97;117354;1189;21899;-60
2021/12/12 05:22:48;;;;;;;29.30;14.90;;;;;;;10.66;64.84;100799.45;117342;1185;21857;-60
2021/12/12 05:25:18;;;;;;;28.60;16.50;;;;;;;10.68;64.91;100804.70;117296;1185;21848;-61
2021/12/12 05:27:48;;;;;;;31.70;16.30;;;;;;;10.72;64.94;100809.25;117327;1186;21866;-63
2021/12/12 05:30:23;;;;;;;31.60;15.90;;;;;;;10.78;64.83;100810.96;117290;1186;22070;-61
2021/12/12 05:32:51;;;;;;;34.50;16.70;;;;;;;10.82;64.85;100814.96;117293;1186;23212;-60
2021/12/12 05:35:34;;;;;;;35.30;17.80;;;;;;;10.84;65.00;100816.02;116977;1186;21859;-62
2021/12/12 05:38:06;;;;;;;26.60;15.50;;;;;;;10.88;64.62;100820.73;117244;1183;21848;-61
2021/12/12 05:40:37;;;;;;;33.50;18.10;;;;;;;10.89;64.75;100820.55;117265;1186;21858;-60
2021/12/12 05:43:05;;;;;;;32.40;16.70;;;;;;;10.84;64.84;100822.33;117302;1186;22924;-60
2021/12/12 05:45:34;;;;;;;27.50;16.90;;;;;;;10.81;64.77;100827.27;117439;1185;21854;-60
2021/12/12 05:48:04;;;;;;;31.60;17.80;;;;;;;10.83;64.86;100832.16;117281;1183;24002;-59
2021/12/12 05:50:32;;;;;;;28.30;17.00;;;;;;;10.83;64.88;100833.05;117279;1183;21857;-60
2021/12/12 05:53:00;;;;;;;27.70;16.40;;;;;;;10.85;64.72;100834.09;117319;1183;21873;-59
2021/12/12 05:55:31;;;;;;;26.20;16.30;;;;;;;10.85;64.92;100831.80;117339;1186;21849;-59
2021/12/12 05:57:59;;;;;;;28.90;16.40;;;;;;;10.81;64.95;100834.64;117291;1185;21861;-58
2021/12/12 06:00:39;;;;;;;27.50;15.90;;;;;;;10.77;64.98;100834.50;117253;1186;21856;-59
2021/12/12 06:03:10;;;;;;;32.60;17.30;;;;;;;10.77;65.04;100831.00;117306;1186;23543;-58
2021/12/12 06:05:39;;;;;;;29.00;16.50;;;;;;;10.79;64.96;100831.51;117203;1186;23550;-58
2021/12/12 06:08:07;;;;;;;27.90;17.60;;;;;;;10.79;65.01;100832.73;117175;1183;21847;-59
2021/12/12 06:10:37;;;;;;;28.20;16.20;;;;;;;10.80;64.88;100832.20;117191;1188;21857;-58
2021/12/12 06:13:05;;;;;;;33.40;18.20;;;;;;;10.80;64.98;100830.27;117415;1185;22911;-60
2021/12/12 06:15:34;;;;;;;30.20;18.10;;;;;;;10.78;64.85;100827.30;117347;1183;21857;-60
2021/12/12 06:18:02;;;;;;;32.30;17.90;;;;;;;10.76;65.00;100825.73;117339;1185;22950;-60
2021/12/12 06:20:34;;;;;;;31.60;18.60;;;;;;;10.75;64.97;100826.25;117276;1183;21848;-60
2021/12/12 06:23:02;;;;;;;35.40;19.50;;;;;;;10.76;65.01;100822.73;117384;1182;24135;-59
2021/12/12 06:25:30;;;;;;;36.40;19.30;;;;;;;10.77;65.02;100825.19;117271;1188;21851;-59
2021/12/12 06:27:59;;;;;;;31.90;18.00;;;;;;;10.78;64.99;100830.80;117214;1185;21868;-59
2021/12/12 06:30:27;;;;;;;35.40;19.20;;;;;;;10.76;64.90;100830.11;117414;1185;22685;-60
2021/12/12 06:32:55;;;;;;;34.10;19.90;;;;;;;10.74;64.93;100824.15;117434;1185;21862;-61
2021/12/12 06:35:23;;;;;;;33.70;19.60;;;;;;;10.73;64.93;100828.38;117369;1189;21891;-59
2021/12/12 06:37:52;;;;;;;41.00;19.80;;;;;;;10.74;64.97;100830.65;117456;1183;21858;-59
2021/12/12 06:40:21;;;;;;;37.00;19.70;;;;;;;10.71;64.92;100827.85;117326;1185;21867;-59
2021/12/12 06:42:51;;;;;;;29.00;18.30;;;;;;;10.67;65.06;100827.70;117350;1183;21857;-59
2021/12/12 06:45:19;;;;;;;30.20;18.10;;;;;;;10.64;65.03;100831.93;117354;1183;23452;-60
2021/12/12 06:47:48;;;;;;;28.30;17.50;;;;;;;10.62;64.90;100830.90;117305;1183;23105;-59
2021/12/12 06:50:16;;;;;;;34.90;19.50;;;;;;;10.61;64.95;100834.40;117298;1185;21889;-60
2021/12/12 06:52:50;;;;;;;30.90;17.70;;;;;;;10.61;65.05;100840.70;117271;1186;23573;-62
2021/12/12 06:55:18;;;;;;;36.40;20.80;;;;;;;10.60;65.19;100833.71;117367;1182;22629;-57
2021/12/12 06:57:46;;;;;;;36.80;20.30;;;;;;;10.60;65.31;100842.49;117225;1186;23550;-62
2021/12/12 07:00:18;;;;;;;32.40;19.00;;;;;;;10.61;65.19;100841.42;117251;1188;21858;-62
2021/12/12 07:02:46;;;;;;;34.40;19.00;;;;;;;10.62;65.09;100834.57;117347;1185;24145;-62
2021/12/12 07:05:18;;;;;;;29.70;17.00;;;;;;;10.61;65.11;100832.66;117295;1182;23539;-62
2021/12/12 07:07:48;;;;;;;31.40;16.90;;;;;;;10.59;65.06;100832.32;117342;1185;21930;-63
2021/12/12 07:10:17;;;;;;;33.70;18.30;;;;;;;10.59;64.94;100833.91;117322;1182;23602;-62
2021/12/12 07:12:46;;;;;;;28.70;17.30;;;;;;;10.61;65.08;100837.04;117260;1187;22932;-59
2021/12/12 07:15:15;;;;;;;35.70;18.60;;;;;;;10.63;65.12;100840.19;117327;1186;22932;-58
2021/12/12 07:17:44;;;;;;;30.60;17.70;;;;;;;10.63;65.04;100841.77;117302;1186;22813;-58
2021/12/12 07:20:13;;;;;;;29.80;16.50;;;;;;;10.61;64.88;100838.27;117131;1186;21861;-61
2021/12/12 07:22:41;;;;;;;26.90;15.50;;;;;;;10.58;65.06;100832.85;117382;1183;24122;-61
2021/12/12 07:25:09;;;;;;;24.60;15.80;;;;;;;10.56;64.79;100834.42;117196;1189;21857;-63
2021/12/12 07:27:37;;;;;;;29.00;15.30;;;;;;;10.54;64.86;100828.64;117295;1186;23573;-60
2021/12/12 07:30:07;;;;;;;29.60;16.30;;;;;;;10.53;65.00;100824.27;117279;1186;23446;-62
2021/12/12 07:32:37;;;;;;;27.00;16.50;;;;;;;10.54;65.12;100815.84;117296;1185;22908;-58
2021/12/12 07:35:08;;;;;;;29.10;17.00;;;;;;;10.53;64.87;100803.91;117263;1186;23532;-59
2021/12/12 07:37:36;;;;;;;27.60;15.80;;;;;;;10.52;65.00;100804.63;117275;1185;23561;-58
2021/12/12 07:40:07;;;;;;;28.10;16.30;;;;;;;10.51;64.97;100792.35;117271;1182;23547;-62
2021/12/12 07:42:35;;;;;;;30.00;16.10;;;;;;;10.50;65.05;100792.00;117393;1186;22912;-59
2021/12/12 07:45:05;;;;;;;26.50;16.00;;;;;;;10.50;65.07;100784.63;117313;1186;21845;-58
2021/12/12 07:47:34;;;;;;;27.20;15.70;;;;;;;10.52;65.03;100783.92;117382;1176;23438;-61
2021/12/12 07:50:05;;;;;;;26.80;15.50;;;;;;;10.54;65.14;100782.86;117338;1186;24206;-61
2021/12/12 07:52:33;;;;;;;24.20;15.40;;;;;;;10.55;65.20;100793.38;117288;1182;23464;-62
2021/12/12 07:55:01;;;;;;;24.70;14.60;;;;;;;10.56;64.98;100803.55;117246;1186;21849;-61
2021/12/12 07:57:30;;;;;;;24.10;13.90;;;;;;;10.56;65.11;100819.34;117310;1186;23471;-60
2021/12/12 07:59:59;;;;;;;24.40;14.60;;;;;;;10.53;64.95;100820.76;117186;1186;22914;-61
2021/12/12 08:02:27;;;;;;;24.00;14.20;;;;;;;10.49;65.03;100830.60;117289;1186;23462;-60
2021/12/12 08:04:56;;;;;;;20.40;12.80;;;;;;;10.47;65.04;100836.21;117300;1183;22821;-60
2021/12/12 08:07:24;;;;;;;24.20;13.80;;;;;;;10.45;65.00;100824.83;117159;1186;23541;-61
2021/12/12 08:09:53;;;;;;;20.30;13.30;;;;;;;10.41;64.86;100817.48;117304;1185;22982;-62
2021/12/12 08:12:41;;;;;;;22.50;14.30;;;;;;;10.41;64.85;100801.67;117136;1185;23436;-60
2021/12/12 08:15:17;;;;;;;21.30;13.40;;;;;;;10.47;64.93;100781.31;117009;1186;23134;-60
2021/12/12 08:17:45;;;;;;;24.10;14.40;;;;;;;10.53;64.97;100765.15;117255;1186;22821;-61
2021/12/12 08:20:15;;;;;;;23.30;14.30;;;;;;;10.57;64.88;100776.17;117388;1186;23474;-58
2021/12/12 08:22:43;;;;;;;21.40;13.60;;;;;;;10.59;64.90;100783.52;117431;1177;23616;-61
2021/12/12 08:25:12;;;;;;;20.30;12.90;;;;;;;10.60;64.91;100779.13;117066;1185;23615;-60
2021/12/12 08:27:42;;;;;;;22.10;13.60;;;;;;;10.59;64.96;100764.23;117353;1185;22633;-61
2021/12/12 08:30:11;;;;;;;18.40;11.70;;;;;;;10.56;64.77;100766.18;117324;1186;23592;-59
2021/12/12 08:32:40;;;;;;;17.60;11.30;;;;;;;10.55;64.86;100765.48;117205;1186;23439;-61
2021/12/12 08:35:13;;;;;;;18.20;12.60;;;;;;;10.57;64.87;100765.12;117330;1186;22625;-59
2021/12/12 08:37:42;;;;;;;19.90;11.90;;;;;;;10.59;65.05;100763.88;117293;1186;23550;-60
2021/12/12 08:40:12;;;;;;;20.20;12.10;;;;;;;10.61;64.98;100764.39;117330;1182;22942;-61
2021/12/12 08:42:41;;;;;;;21.20;12.20;;;;;;;10.61;64.96;100765.61;117268;1183;22659;-61
2021/12/12 08:45:12;;;;;;;20.10;12.10;;;;;;;10.61;64.87;100769.64;117337;1179;21857;-59
2021/12/12 08:47:44;;;;;;;19.80;11.80;;;;;;;10.61;65.02;100772.27;117271;1186;23464;-61
2021/12/12 08:50:13;;;;;;;19.30;12.40;;;;;;;10.62;64.85;100762.98;117251;1182;23462;-59
2021/12/12 08:52:44;;;;;;;16.80;10.50;;;;;;;10.62;64.98;100763.67;117210;1189;23518;-60
2021/12/12 08:55:21;;;;;;;16.80;10.40;;;;;;;10.61;64.97;100756.65;117287;1186;21861;-59
2021/12/12 09:00:35;;;;;;;14.90;10.30;;;;;;;10.64;64.90;100747.52;117131;1186;24149;-59
2021/12/12 09:03:05;;;;;;;17.40;10.20;;;;;;;10.62;64.88;100751.55;117290;1183;23080;-59
2021/12/12 09:05:36;;;;;;;15.80;10.20;;;;;;;10.57;64.92;100758.45;117188;1182;21858;-61
2021/12/12 09:08:30;;;;;;;14.30;9.70;;;;;;;10.54;64.85;100752.48;117316;1186;23452;-60
2021/12/12 09:11:19;;;;;;;16.70;10.30;;;;;;;10.53;64.84;100749.36;117105;1182;23540;-59
2021/12/12 09:13:52;;;;;;;15.20;10.20;;;;;;;10.50;64.72;100754.10;117260;1186;21902;-60
2021/12/12 09:16:32;;;;;;;16.50;10.00;;;;;;;10.46;64.94;100757.81;117327;1182;23540;-61
2021/12/12 09:19:07;;;;;;;15.20;10.20;;;;;;;10.44;64.78;100753.08;117357;1186;23484;-60
2021/12/12 09:21:57;;;;;;;15.60;10.00;;;;;;;10.41;64.95;100755.55;117290;1186;23316;-59
2021/12/12 09:24:43;;;;;;;16.50;10.80;;;;;;;10.41;64.86;100752.92;117269;1182;21867;-60
2021/12/12 09:27:31;;;;;;;15.60;9.60;;;;;;;10.41;64.81;100755.55;117341;1186;22982;-59
2021/12/12 09:29:59;;;;;;;15.40;10.30;;;;;;;10.38;64.88;100760.46;117322;1183;21921;-60
2021/12/12 09:32:33;;;;;;;16.50;10.40;;;;;;;10.36;64.73;100766.77;117288;1186;21860;-59
2021/12/12 09:35:08;;;;;;;15.00;10.20;;;;;;;10.33;64.79;100766.27;117133;1186;22913;-59
2021/12/12 09:37:39;;;;;;;16.70;10.50;;;;;;;10.31;64.77;100766.63;117404;1186;21878;-60
2021/12/12 09:40:38;;;;;;;19.60;10.40;;;;;;;10.28;64.65;100777.87;117359;1182;21857;-58
2021/12/12 09:43:28;;;;;;;18.70;10.00;;;;;;;10.28;64.89;100775.76;117345;1184;21847;-60
2021/12/12 09:46:31;;;;;;;15.00;10.10;;;;;;;10.25;64.76;100780.34;117357;1183;23541;-58
2021/12/12 09:52:16;;;;;;;16.20;10.50;;;;;;;10.15;64.72;100793.70;117353;1185;21866;-60
2021/12/12 09:55:07;;;;;;;14.70;9.90;;;;;;;10.11;64.71;100804.24;117343;1185;22836;-59
2021/12/12 09:57:54;;;;;;;14.70;10.00;;;;;;;10.08;64.74;100820.91;117388;1186;21858;-59
2021/12/12 10:00:42;;;;;;;16.30;10.30;;;;;;;10.05;64.71;100822.49;117271;1186;23541;-59
2021/12/12 10:03:16;;;;;;;;;;;;;;;10.01;64.84;100822.50;117284;1179;22605;-59
2021/12/12 10:05:59;;;;;;;17.50;10.60;;;;;;;10.01;64.75;100820.58;117330;1189;21871;-60
2021/12/12 10:08:31;;;;;;;14.90;10.50;;;;;;;10.07;64.69;100820.39;117281;1186;24168;-59
2021/12/12 10:11:24;;;;;;;15.50;11.30;;;;;;;10.12;64.79;100811.42;117363;1186;23573;-58
2021/12/12 10:14:13;;;;;;;18.10;11.10;;;;;;;10.17;64.70;100799.13;117375;1186;21862;-60
2021/12/12 10:16:56;;;;;;;14.70;10.10;;;;;;;10.18;64.67;100796.14;117335;1186;21864;-61
2021/12/12 10:19:43;;;;;;;14.60;10.50;;;;;;;10.20;64.75;100793.15;117332;1183;22922;-60
2021/12/12 10:22:19;;;;;;;15.90;10.80;;;;;;;10.19;64.82;100791.92;117309;1182;23564;-60
2021/12/12 10:25:00;;;;;;;16.70;11.00;;;;;;;10.17;64.79;100782.82;117248;1186;23460;-59
2021/12/12 10:27:32;;;;;;;17.20;12.30;;;;;;;10.17;64.91;100776.66;117328;1185;22931;-58
2021/12/12 10:30:07;;;;;;;17.60;11.50;;;;;;;10.16;64.95;100774.23;117281;1186;21873;-59
2021/12/12 10:32:57;;;;;;;17.70;12.10;;;;;;;10.19;64.91;100767.73;117391;1185;21858;-60
2021/12/12 10:35:33;;;;;;;16.70;11.20;;;;;;;10.19;64.78;100764.58;117319;1185;23474;-59
2021/12/12 10:38:08;;;;;;;14.50;10.20;;;;;;;10.19;64.95;100755.80;117189;1188;21849;-59
2021/12/12 10:40:50;;;;;;;15.00;10.40;;;;;;;10.19;64.93;100759.30;117147;1186;22925;-60
2021/12/12 10:43:24;;;;;;;14.50;10.50;;;;;;;10.18;64.90;100759.85;117330;1185;21857;-59
2021/12/12 10:45:57;;;;;;;16.80;11.70;;;;;;;10.19;64.83;100762.46;117206;1188;23007;-59
2021/12/12 10:48:30;;;;;;;15.80;10.20;;;;;;;10.22;64.78;100771.40;117285;1186;21911;-59
2021/12/12 10:51:06;;;;;;;14.80;10.90;;;;;;;10.23;64.76;100764.55;117217;1186;22978;-59
2021/12/12 10:53:41;;;;;;;15.90;11.00;;;;;;;10.22;64.78;100763.52;117337;1186;23466;-58
2021/12/12 10:56:18;;;;;;;16.30;11.30;;;;;;;10.21;64.75;100760.00;117170;1183;23541;-59
2021/12/12 10:58:49;;;;;;;14.90;10.70;;;;;;;10.18;64.81;100749.15;117210;1182;22924;-59
2021/12/12 11:01:19;;;;;;;18.50;12.00;;;;;;;10.16;64.68;100740.40;117333;1186;21843;-59
2021/12/12 11:03:59;;;;;;;;;;;;;;;10.14;64.68;100735.67;117345;1186;21865;-58
2021/12/12 11:06:33;;;;;;;20.20;12.00;;;;;;;10.14;64.81;100744.96;117315;1186;21857;-59
2021/12/12 11:09:06;;;;;;;17.00;10.70;;;;;;;10.12;64.74;100763.75;117306;1186;23461;-58
2021/12/12 11:11:39;;;;;;;17.40;12.30;;;;;;;10.08;64.89;100770.95;117275;1186;23608;-61
2021/12/12 11:14:20;;;;;;;18.50;12.60;;;;;;;10.06;64.77;100772.70;117381;1186;23538;-58
2021/12/12 11:17:12;;;;;;;17.20;12.10;;;;;;;10.04;64.80;100781.64;117344;1186;21944;-58
2021/12/12 11:19:51;;;;;;;19.80;13.10;;;;;;;10.02;64.70;100769.55;117318;1186;21868;-60
2021/12/12 11:22:25;;;;;;;19.00;12.90;;;;;;;10.01;64.78;100765.00;117305;1189;21859;-59
2021/12/12 11:24:59;;;;;;;19.60;14.30;;;;;;;10.02;64.78;100760.44;117177;1179;24146;-61
2021/12/12 11:27:39;;;;;;;24.20;14.10;;;;;;;10.05;64.74;100761.65;116973;1189;24173;-59
2021/12/12 11:30:26;;;;;;;23.40;13.70;;;;;;;10.08;64.55;100760.95;117333;1186;22811;-59
2021/12/12 11:32:54;;;;;;;18.60;13.20;;;;;;;10.09;64.51;100763.05;117354;1181;23438;-58
2021/12/12 11:35:24;;;;;;;19.00;14.20;;;;;;;10.07;64.61;100757.62;117241;1183;22912;-59
2021/12/12 11:37:57;;;;;;;24.50;14.00;;;;;;;10.06;64.53;100750.96;117318;1186;23580;-60
2021/12/12 11:40:48;;;;;;;18.50;13.40;;;;;;;10.05;64.54;100738.16;117666;1186;21860;-60
2021/12/12 11:43:32;;;;;;;20.70;13.40;;;;;;;10.01;64.60;100733.79;117290;1186;21861;-60
2021/12/12 11:46:04;;;;;;;21.40;13.10;;;;;;;10.00;64.61;100734.84;117180;1187;22086;-58
2021/12/12 11:48:47;;;;;;;18.70;13.00;;;;;;;9.94;64.81;100740.13;117343;1183;22817;-58
2021/12/12 11:51:46;;;;;;;20.10;13.70;;;;;;;9.93;64.74;100749.09;117375;1186;21891;-59
2021/12/12 11:54:34;;;;;;;22.80;14.50;;;;;;;9.93;64.67;100739.80;117368;1186;21976;-59